• Join FlightAware (Why Join?)
  • Login
  • US Flag 
12:05PM EDT


 

Airport Tracker/Info


-or-


 

Live Flight TrackerFlight Track Log ✈ DAL8965 ✈ 2014-Jun-28 ✈ KMQY - KATL

Flight Track Log - Related Links

Times and Time Zones

All times are in EDT time to prevent confusion due to time zone crossing. See the DAL8965 flight status page for this flight to view local times or setup timezone preferences in your user account.

Time Position Orientation Groundspeed Altitude Reporting Facility
EDT Latitude Longitude Course Direction KTS MPH feet Rate Location/Type
08:50AM 35.6285 -86.4980 189° South 404 465 17,400  Level FlightAware ADS-B (KMDQ)
08:51AM 35.5622 -86.5097 187° South 416 479 19,600 3,120 Climbing FlightAware ADS-B (KMDQ)
08:51AM 35.4743 -86.5132 169° South 429 494 21,600 3,000 Climbing FlightAware ADS-B (KMDQ)
08:51AM 35.4431 -86.5025 156° South 439 505 22,500 1,800 Climbing FlightAware ADS-B (KMDQ)
08:52AM 35.3968 -86.4719 144° Southeast 448 516 22,900 660 Climbing FlightAware ADS-B (KMDQ)
08:52AM 35.3660 -86.4384 133° Southeast 457 526 23,000 1,320 Climbing FlightAware ADS-B (KMDQ)
08:53AM 35.3175 -86.3586 119° Southeast 458 527 24,200 1,980 Climbing FlightAware ADS-B (KMDQ)
08:54AM 35.2738 -86.2621 119° Southeast 470 541 25,700 1,980 Climbing FlightAware ADS-B (KMDQ)
08:54AM 35.2314 -86.1716 122° Southeast 479 551 26,900 780 Climbing FlightAware ADS-B (KMDQ)
08:55AM 35.1374 -86.0588 146° Southeast 467 537 27,000  Climbing FlightAware ADS-B (KMDQ)
08:56AM 35.0641 -86.0001 147° Southeast 460 529 27,000  Level FlightAware ADS-B (KMDQ)
08:57AM 34.9940 -85.9442 147° Southeast 458 527 27,000  Level FlightAware ADS-B (KMDQ)
08:57AM 34.9225 -85.8871 147° Southeast 459 528 27,000  Level FlightAware ADS-B (KMDQ)
08:58AM 34.8604 -85.8376 147° Southeast 459 528 27,000  Level FlightAware ADS-B (KMDQ)
08:58AM 34.8035 -85.7921 147° Southeast 456 525 27,000  Level FlightAware ADS-B (KMDQ)
08:59AM 34.7550 -85.7428 147° Southeast 464 534 27,000  Level Atlanta Center
09:00AM 34.6478 -85.6597 147° Southeast 464 534 27,000  Level Atlanta Center
09:01AM 34.5422 -85.5769 147° Southeast 464 534 27,000 -480 Level Atlanta Center
09:02AM 34.4347 -85.4944 148° Southeast 458 527 26,100 -1,500 Descending Atlanta Center
09:03AM 34.3314 -85.4097 146° Southeast 452 520 24,100 -2,400 Descending Atlanta Center
09:04AM 34.2236 -85.3275 148° Southeast 452 520 21,400 -3,120 Descending Atlanta Center
09:05AM 34.1222 -85.2458 146° Southeast 452 520 17,900 -3,300 Descending Atlanta Center
09:06AM 34.0208 -85.1642 146° Southeast 447 514 14,800 -2,460 Descending Atlanta Center
09:07AM 33.9422 -85.0731 136° Southeast 428 493 13,000 -1,440 Descending Atlanta Center
09:08AM 33.8931 -84.9522 116° Southeast 397 457 12,000 -600 Descending Atlanta Center
09:09AM 33.8500 -84.8667 121° Southeast 357 411 12,000  Level Atlanta TRACON
09:10AM 33.7833 -84.8000 140° Southeast 309 356 12,000  Level Atlanta TRACON
09:11AM 33.7333 -84.7167 126° Southeast 322 371 12,000  Level Atlanta TRACON
09:12AM 33.7333 -84.6000 90° East 324 373 12,000 -360 Level Atlanta TRACON
09:13AM 33.7333 -84.5000 90° East 328 377 11,300 -1,080 Descending Atlanta TRACON
09:14AM 33.7333 -84.4000 90° East 317 365 9,900 -1,500 Descending Atlanta TRACON
09:15AM 33.7333 -84.3000 90° East 267 307 8,400 -1,620 Descending Atlanta TRACON
09:16AM 33.7333 -84.2167 90° East 258 297 6,700 -1,800 Descending Atlanta TRACON
09:17AM 33.6667 -84.2167 180° South 220 253 4,800 -1,800 Descending Atlanta TRACON
09:18AM 33.6500 -84.2667 248° West 181 208 3,200 -1,260 Descending Atlanta TRACON
09:19AM 33.6500 -84.3167 270° West 155 178 2,300 -840 Descending Atlanta TRACON
09:20AM 33.6500 -84.3667 270° West 126 145 1,600 -720 Descending Atlanta TRACON
09:22AM 33.6333 -84.4167 North  Level FlightAware Approximate
09:29AM 33.6367 -84.4279 North  Level Estimated